createdAt,value
2023-01-09T00:02:53.394Z,40.30
2023-01-09T00:06:56.797Z,25.07
2023-01-09T00:11:01.649Z,30.70
2023-01-09T00:15:06.422Z,29.60
2023-01-09T00:19:10.134Z,51.57
2023-01-09T00:23:13.685Z,30.00
2023-01-09T00:27:18.540Z,46.80
2023-01-09T00:31:22.787Z,40.00
2023-01-09T00:35:27.789Z,35.43
2023-01-09T00:39:32.535Z,43.63
2023-01-09T00:43:44.222Z,40.03
2023-01-09T00:47:51.127Z,51.63
2023-01-09T00:51:56.988Z,45.10
2023-01-09T00:56:03.508Z,24.73
2023-01-09T01:00:12.437Z,29.90
2023-01-09T01:09:19.448Z,42.90
2023-01-09T01:13:30.190Z,49.73
2023-01-09T01:17:37.830Z,26.07
2023-01-09T01:21:41.316Z,44.67
2023-01-09T01:25:45.846Z,44.50
2023-01-09T01:29:49.224Z,42.13
2023-01-09T01:33:54.084Z,65.73
2023-01-09T01:38:10.901Z,54.83
2023-01-09T01:42:15.423Z,34.33
2023-01-09T01:46:21.249Z,49.23
2023-01-09T01:50:34.631Z,40.20
2023-01-09T01:54:38.270Z,52.27
2023-01-09T01:58:47.069Z,47.40
2023-01-09T02:02:51.574Z,75.50
2023-01-09T02:06:58.121Z,63.37
2023-01-09T02:11:16.722Z,63.23
2023-01-09T02:15:20.999Z,41.67
2023-01-09T02:19:45.971Z,54.63
2023-01-09T02:24:25.343Z,37.37
2023-01-09T02:28:54.096Z,59.50
2023-01-09T02:33:09.198Z,42.80
2023-01-09T02:37:19.055Z,38.30
2023-01-09T02:41:26.430Z,38.03
2023-01-09T02:45:29.930Z,46.27
2023-01-09T02:49:36.518Z,41.10
2023-01-09T02:54:04.061Z,47.03
2023-01-09T02:58:37.586Z,44.47
2023-01-09T03:02:54.625Z,65.80
2023-01-09T03:07:04.669Z,29.40
2023-01-09T03:11:09.143Z,42.03
2023-01-09T03:15:15.791Z,36.63
2023-01-09T03:19:23.496Z,43.37
2023-01-09T03:23:28.507Z,40.70
2023-01-09T03:27:32.025Z,38.33
2023-01-09T03:31:35.334Z,37.90
2023-01-09T03:35:38.696Z,20.17
2023-01-09T03:39:43.729Z,19.93
2023-01-09T03:43:48.588Z,33.40
2023-01-09T03:47:59.531Z,43.07
2023-01-09T03:52:02.994Z,20.47
2023-01-09T03:56:08.655Z,36.27
2023-01-09T04:00:13.559Z,14.70
2023-01-09T04:04:17.067Z,24.97
2023-01-09T04:08:20.917Z,24.07
2023-01-09T04:12:25.688Z,33.97
2023-01-09T04:16:35.225Z,23.80
2023-01-09T04:20:38.601Z,18.87
2023-01-09T04:24:41.925Z,21.37
2023-01-09T04:29:12.926Z,34.57
2023-01-09T04:33:16.159Z,25.67
2023-01-09T04:37:19.626Z,26.23
2023-01-09T04:41:45.059Z,37.40
2023-01-09T04:45:49.802Z,32.10
2023-01-09T04:50:07.902Z,20.97
2023-01-09T04:54:11.650Z,36.83
2023-01-09T04:58:19.099Z,14.50
2023-01-09T05:02:23.849Z,25.13
2023-01-09T05:07:00.750Z,29.23
2023-01-09T05:11:08.983Z,23.20
2023-01-09T05:15:13.193Z,24.70
2023-01-09T05:20:09.141Z,15.40
2023-01-09T05:24:13.959Z,10.07
2023-01-09T05:28:17.605Z,10.17
2023-01-09T05:32:20.944Z,11.30
2023-01-09T05:36:24.272Z,9.50
2023-01-09T05:40:35.292Z,16.63
2023-01-09T05:44:43.352Z,11.07
2023-01-09T05:48:47.986Z,10.97
2023-01-09T05:53:41.355Z,11.40
2023-01-09T05:57:46.129Z,11.03
2023-01-09T06:01:50.942Z,12.30
2023-01-09T06:05:54.342Z,9.40
2023-01-09T06:09:59.884Z,13.33
2023-01-09T06:14:05.148Z,12.77
2023-01-09T06:18:09.601Z,10.17
2023-01-09T06:22:12.900Z,11.20
2023-01-09T06:26:16.395Z,14.83
2023-01-09T06:30:21.331Z,11.77
2023-01-09T06:34:24.714Z,10.50
2023-01-09T06:38:28.000Z,14.40
2023-01-09T06:42:35.805Z,11.60
2023-01-09T06:46:40.809Z,12.10
2023-01-09T06:50:45.916Z,10.57
2023-01-09T06:54:49.201Z,11.47
2023-01-09T06:58:53.758Z,10.93
2023-01-09T07:02:58.373Z,10.83
2023-01-09T07:07:01.596Z,13.07
2023-01-09T07:11:05.169Z,17.03
2023-01-09T07:15:09.419Z,10.17
2023-01-09T07:19:17.442Z,9.43
2023-01-09T07:23:20.730Z,9.57
2023-01-09T07:27:30.404Z,8.87
2023-01-09T07:31:33.702Z,8.17
2023-01-09T07:35:40.542Z,9.23
2023-01-09T07:39:43.834Z,8.43
2023-01-09T07:43:47.145Z,7.97
2023-01-09T07:47:52.414Z,9.00
2023-01-09T07:51:58.275Z,8.43
2023-01-09T07:56:01.595Z,7.43
2023-01-09T08:00:11.107Z,6.53
2023-01-09T08:04:17.261Z,4.93
2023-01-09T08:08:22.894Z,5.67
2023-01-09T08:12:30.177Z,3.83
2023-01-09T08:16:33.497Z,3.80
2023-01-09T08:20:37.899Z,4.50
2023-01-09T08:24:42.659Z,4.33
2023-01-09T08:28:46.221Z,5.17
2023-01-09T08:32:53.987Z,4.47
2023-01-09T08:36:58.903Z,2.70
2023-01-09T08:46:03.010Z,1.47
2023-01-09T08:50:06.837Z,1.40
2023-01-09T08:54:11.537Z,1.60
2023-01-09T08:58:16.464Z,1.40
2023-01-09T09:02:46.474Z,1.77
2023-01-09T09:06:49.996Z,2.37
2023-01-09T09:11:01.290Z,2.70
2023-01-09T09:19:53.568Z,2.90
2023-01-09T09:23:59.791Z,3.07
2023-01-09T09:28:05.128Z,3.50
2023-01-09T09:32:10.461Z,2.87
2023-01-09T09:36:14.125Z,2.83
2023-01-09T09:40:32.042Z,2.90
2023-01-09T09:45:17.965Z,2.53
2023-01-09T09:49:29.451Z,2.77
2023-01-09T09:53:42.676Z,3.00
2023-01-09T09:57:48.443Z,2.90
2023-01-09T10:01:56.965Z,2.63
2023-01-09T10:06:04.196Z,3.13
2023-01-09T10:10:16.281Z,2.70
2023-01-09T10:14:24.280Z,1.90
2023-01-09T10:19:13.613Z,1.40
2023-01-09T10:23:50.462Z,1.47
2023-01-09T10:28:15.348Z,1.53
2023-01-09T10:32:45.963Z,1.27
2023-01-09T10:37:01.174Z,1.67
2023-01-09T10:41:12.728Z,1.27
2023-01-09T10:45:20.295Z,1.10
2023-01-09T10:49:41.757Z,1.30
2023-01-09T10:53:50.428Z,1.30
2023-01-09T10:58:00.436Z,1.20
2023-01-09T11:02:06.104Z,1.00
2023-01-09T11:06:31.298Z,0.87
2023-01-09T11:10:49.627Z,0.60
2023-01-09T11:14:56.520Z,0.70
2023-01-09T11:19:02.271Z,0.63
2023-01-09T11:23:30.378Z,0.70
2023-01-09T11:27:33.708Z,0.80
2023-01-09T11:31:38.889Z,0.40
2023-01-09T11:35:58.523Z,0.60
2023-01-09T11:40:02.389Z,0.60
2023-01-09T11:44:06.814Z,0.60
2023-01-09T11:48:27.991Z,0.60
2023-01-09T11:52:32.544Z,0.50
2023-01-09T11:56:37.787Z,0.53
2023-01-09T12:00:55.134Z,0.50
2023-01-09T12:05:02.537Z,0.30
2023-01-09T12:09:07.709Z,0.50
2023-01-09T12:13:50.081Z,0.37
2023-01-09T12:18:24.039Z,0.40
2023-01-09T12:22:42.281Z,0.30
2023-01-09T12:26:54.172Z,0.37
2023-01-09T12:31:17.083Z,0.27
2023-01-09T12:35:33.103Z,0.40
2023-01-09T12:39:53.948Z,0.40
2023-01-09T12:44:24.306Z,0.57
2023-01-09T12:49:26.412Z,0.53
2023-01-09T12:53:34.754Z,0.40
2023-01-09T12:57:44.597Z,0.30
2023-01-09T13:01:51.176Z,0.50
2023-01-09T13:05:59.809Z,0.37
2023-01-09T13:10:10.617Z,0.40
2023-01-09T13:14:24.317Z,0.70
2023-01-09T13:18:41.094Z,0.50
2023-01-09T13:22:52.278Z,0.40
2023-01-09T13:26:59.416Z,0.30
2023-01-09T13:31:30.030Z,0.50
2023-01-09T13:35:33.427Z,0.57
2023-01-09T13:39:37.103Z,0.50
2023-01-09T13:43:55.626Z,0.60
2023-01-09T13:48:45.339Z,0.40
2023-01-09T13:52:57.615Z,0.40
2023-01-09T13:57:28.783Z,0.40
2023-01-09T14:06:28.270Z,0.40
2023-01-09T14:10:36.764Z,0.47
2023-01-09T14:14:47.712Z,0.40
2023-01-09T14:19:04.035Z,0.40
2023-01-09T14:28:08.447Z,0.70
2023-01-09T14:32:57.414Z,0.70
2023-01-09T14:37:03.692Z,0.60
2023-01-09T14:41:21.129Z,0.47
2023-01-09T14:45:27.206Z,0.40
2023-01-09T14:49:38.568Z,0.47
2023-01-09T14:53:49.998Z,0.50
2023-01-09T14:57:55.473Z,0.50
2023-01-09T15:02:11.926Z,0.40
2023-01-09T15:06:19.518Z,0.50
2023-01-09T15:10:25.002Z,0.40
2023-01-09T15:14:36.017Z,0.50
2023-01-09T15:18:43.938Z,0.63
2023-01-09T15:22:54.652Z,0.60
2023-01-09T15:27:01.172Z,0.77
2023-01-09T15:31:09.138Z,0.57
2023-01-09T15:35:15.531Z,0.40
2023-01-09T15:39:47.303Z,0.40
2023-01-09T15:43:50.584Z,0.40
2023-01-09T15:48:17.032Z,0.30
2023-01-09T15:52:22.748Z,0.63
2023-01-09T15:56:30.741Z,0.60
2023-01-09T16:01:02.541Z,0.40
2023-01-09T16:05:10.130Z,0.40
2023-01-09T16:09:18.317Z,0.30
2023-01-09T16:13:24.315Z,0.60
2023-01-09T16:18:06.197Z,0.50
2023-01-09T16:22:22.580Z,0.40
2023-01-09T16:26:27.849Z,0.50
2023-01-09T16:30:31.248Z,0.43
2023-01-09T16:34:36.945Z,0.60
2023-01-09T16:38:43.364Z,0.50
2023-01-09T16:43:03.733Z,0.50
2023-01-09T16:47:14.021Z,0.40
2023-01-09T16:51:42.558Z,0.33
2023-01-09T16:55:48.053Z,0.60
2023-01-09T16:59:51.332Z,0.40
2023-01-09T17:03:58.883Z,0.47
2023-01-09T17:08:02.240Z,0.57
2023-01-09T17:12:07.760Z,0.60
2023-01-09T17:16:13.989Z,0.50
2023-01-09T17:20:19.236Z,0.40
2023-01-09T17:24:42.214Z,0.43
2023-01-09T17:28:52.800Z,0.57
2023-01-09T17:32:56.489Z,0.40
2023-01-09T17:37:03.610Z,0.50
2023-01-09T17:41:07.653Z,0.50
2023-01-09T17:45:15.135Z,0.57
2023-01-09T17:49:21.842Z,0.50
2023-01-09T17:53:25.712Z,0.60
2023-01-09T17:57:55.490Z,0.73
2023-01-09T18:02:05.045Z,0.70
2023-01-09T18:06:12.439Z,0.60
2023-01-09T18:10:16.257Z,0.50
2023-01-09T18:14:19.701Z,0.53
2023-01-09T18:18:25.506Z,0.67
2023-01-09T18:22:34.418Z,0.60
2023-01-09T18:26:37.849Z,0.57
2023-01-09T18:30:41.072Z,0.80
2023-01-09T18:34:58.346Z,0.83
2023-01-09T18:39:03.391Z,0.77
2023-01-09T18:43:08.061Z,0.60
2023-01-09T18:47:11.464Z,0.40
2023-01-09T18:51:16.316Z,0.43
2023-01-09T18:55:24.709Z,0.60
2023-01-09T18:59:28.091Z,0.60
2023-01-09T19:03:31.778Z,0.50
2023-01-09T19:07:36.649Z,0.50
2023-01-09T19:11:44.326Z,0.60
2023-01-09T19:15:48.299Z,0.50
2023-01-09T19:19:53.805Z,0.70
2023-01-09T19:23:58.976Z,0.60
2023-01-09T19:28:02.383Z,0.60
2023-01-09T19:32:09.763Z,0.57
2023-01-09T19:36:18.171Z,0.50
2023-01-09T19:40:22.964Z,0.50
2023-01-09T19:44:32.690Z,0.43
2023-01-09T19:48:36.140Z,0.50
2023-01-09T19:52:43.205Z,0.50
2023-01-09T19:56:50.556Z,0.50
2023-01-09T20:00:53.909Z,0.67
2023-01-09T20:05:24.189Z,0.50
2023-01-09T20:09:29.005Z,0.50
2023-01-09T20:13:35.730Z,0.40
2023-01-09T20:17:39.692Z,0.60
2023-01-09T20:21:47.366Z,0.50
2023-01-09T20:25:51.171Z,1.00
2023-01-09T20:29:56.059Z,0.80
2023-01-09T20:34:02.134Z,0.60
2023-01-09T20:38:05.993Z,0.50
2023-01-09T20:42:09.502Z,0.50
2023-01-09T20:51:44.723Z,0.50
2023-01-09T20:55:48.033Z,0.60
2023-01-09T21:00:12.644Z,0.50
2023-01-09T21:04:18.008Z,0.50
2023-01-09T21:08:58.696Z,1.10
2023-01-09T21:13:02.149Z,0.57
2023-01-09T21:17:25.276Z,0.93
2023-01-09T21:21:28.674Z,0.60
2023-01-09T21:25:33.372Z,0.40
2023-01-09T21:29:37.749Z,0.50
2023-01-09T21:33:42.690Z,0.37
2023-01-09T21:38:16.438Z,0.50
2023-01-09T21:42:41.071Z,0.60
2023-01-09T21:51:41.373Z,0.50
2023-01-09T21:55:44.816Z,0.53
2023-01-09T21:59:49.633Z,0.70
2023-01-09T22:03:54.963Z,0.60
2023-01-09T22:07:58.381Z,0.70
2023-01-09T22:12:01.781Z,0.53
2023-01-09T22:16:32.747Z,0.70
2023-01-09T22:20:36.107Z,0.60
2023-01-09T22:25:33.099Z,0.50
2023-01-09T22:29:36.391Z,0.70
2023-01-09T22:33:41.079Z,0.87
2023-01-09T22:38:52.276Z,0.60
2023-01-09T22:42:56.194Z,0.80
2023-01-09T22:47:29.553Z,1.20
2023-01-09T22:51:34.577Z,1.00
2023-01-09T22:55:37.849Z,0.73
2023-01-09T22:59:41.148Z,0.70
2023-01-09T23:03:47.481Z,0.80
2023-01-09T23:07:52.174Z,0.90
2023-01-09T23:12:03.431Z,1.10
2023-01-09T23:16:07.374Z,1.00
2023-01-09T23:20:12.068Z,0.83
2023-01-09T23:24:19.907Z,0.63
2023-01-09T23:28:24.462Z,0.80
2023-01-09T23:32:27.860Z,0.80
2023-01-09T23:36:57.793Z,0.90
2023-01-09T23:41:03.687Z,0.83
2023-01-09T23:45:07.901Z,0.90
2023-01-09T23:49:14.186Z,1.00
2023-01-09T23:53:18.777Z,1.10
2023-01-09T23:57:23.681Z,0.90
